Archerfield, Queensland

6:52 PM AEST on February 11, 2016 (GMT +1000)
Darra | | Change Station
CLOSE
Current Station
Personal Weather Station
Location: Darra, QUEENSLAND
Elevation: 89 ft
Nearby Weather Stations

Elev 89 ft 27.56 °S, 152.96 °E | Updated 5 seconds ago

Partly Cloudy
Partly Cloudy
77.7 °F
Feels Like 79 °F
N
3.6
Wind Variable Wind from South
Gusts 9.4 mph

Today
High -- | Low -- °F
--% Chance of Precip.
Yesterday
High -- | Low -- °F
Precip. -- in
Pressure 29.89 in
Visibility 6.2 miles
Clouds Few 2600 ft
Heat Index 79 °F
Dew Point 64 °F
Humidity 63%
Rainfall 0.00 in
Snow Depth Not available.
5:27 AM 6:36 PM
Waxing Crescent, 10% visible
METAR YBBN 110830Z 12010KT 9999 FEW026 25/18 Q1012 NOSIG
Pressure 29.89 in
Visibility 6.2 miles
Clouds Few 2600 ft
Heat Index 79 °F
Dew Point 64 °F
Humidity 63%
Rainfall 0.00 in
Snow Depth Not available.
5:27 AM 6:36 PM
Waxing Crescent, 10% visible
METAR YBBN 110830Z 12010KT 9999 FEW026 25/18 Q1012 NOSIG

10-Day Weather Forecast

Almanac

Astronomy

Feb. 11, 2016 Rise Set
Actual Time
Civil Twilight
Nautical Twilight
Astronomical Twilight
Moon
Length of Visible Light
Length of Day
Tomorrow will be .
, % of the Moon is Illuminated

Today's Extremes

Country Highs Country Lows

Community

WunderPhotos

Upload Photos

1,892,030 photos uploaded!

WunderBlog® & News

Nearby

Air Quality

  Air Quality AQ Index Pollutant
Not available.

Snow Depth

Station Depth Elevation

Earthquake Activity

City Distance Mag. Time & Date
Minimum magnitude displayed is 2.5.

Coastal Water Temperatures

Place Temperature

Stations

Nearby Weather Stations

Station Location Temp. Windchill Dew Point Humidity Wind Precip. Elev Updated Type